Terminal Aerodrome Forecast
Issued by NWS Sterling, VA

Home | Current Version | Previous Version | Text Only | Print | Product List | Glossary On
Versions: 1 2 3 4 5 6 7 8 9 10 11 12 13
000
FTUS41 KLWX 101130 AAA
TAFMRB
TAF AMD
KMRB 101130Z 1012/1112 28010KT P6SM SCT140
     FM101600 29010G17KT P6SM SCT110
     FM110300 VRB03KT P6SM SCT140
     FM110500 00000KT P6SM BKN110=

USA.gov is the U.S. government's official web portal to all federal, state and local government web resources and services.